Towne Oaks, Illinois
Current Conditions -  °F | °C
As of 9:54 AM on Wednesday 28 Jan 2015 (Local Time) from KPIA Reporting Station
Clear Clear  
Wind Chill: 22°   Ceiling: Unl
Heat Index: 32°   Visibility: 10mi
Dew Point: 22°   Wind: 14mph
Humidity: 66%   Direction: 160°SSE
Pressure: 30.22"   Gusts: NA
Location:  40.5996°N, 89.5548°W
Report Text: KPIA 281554Z 16012KT 10SM CLR 00/M06 A3022 RMK AO2 SLP239 T00001056
Loading
Personal Weather Stations






























Interactive Weather Map New forecast layout! Learn more

10-Day Weather Forecast

Advertisements
Track Severe Weather on mobile